Time;durP1;ratioP1;P1;durP2;ratioP2;P2;SDS_P1;SDS_P2;PMS_P1;PMS_P2;Temp;Humidity;BMP_temperature;BMP_pressure;BME280_temperature;BME280_humidity;BME280_pressure;Samples;Min_cycle;Max_cycle;Signal;HPM_P1;HPM_P2
2023/06/07 00:01:42;;;;;;;;;16.75;14.25;;;;;;;;5036146;28;45301;-56
2023/06/07 00:04:11;;;;;;;;;19.40;15.40;;;;;;;;5035975;28;45279;-58
2023/06/07 00:06:39;;;;;;;;;16.00;15.80;;;;;;;;5035519;28;46224;-57
2023/06/07 00:09:05;;;;;;;;;15.60;13.60;;;;;;;;5035912;28;45353;-56
2023/06/07 00:11:30;;;;;;;;;12.00;12.00;;;;;;;;5036613;28;45548;-58
2023/06/07 00:13:56;;;;;;;;;16.25;15.75;;;;;;;;5007125;28;45889;-58
2023/06/07 00:16:22;;;;;;;;;16.00;13.50;;;;;;;;5045707;28;46175;-54
2023/06/07 00:18:48;;;;;;;;;22.80;16.40;;;;;;;;5035908;28;45443;-56
2023/06/07 00:21:13;;;;;;;;;15.00;14.00;;;;;;;;5034198;28;45428;-56
2023/06/07 00:23:39;;;;;;;;;14.75;13.00;;;;;;;;5036158;28;45578;-55
2023/06/07 00:26:05;;;;;;;;;14.00;11.40;;;;;;;;5035532;28;46180;-56
2023/06/07 00:28:30;;;;;;;;;16.25;12.75;;;;;;;;5035856;28;45461;-55
2023/06/07 00:30:55;;;;;;;;;15.75;14.25;;;;;;;;5035515;28;45928;-56
2023/06/07 00:33:21;;;;;;;;;14.00;13.75;;;;;;;;5034706;28;45369;-56
2023/06/07 00:35:46;;;;;;;;;10.75;10.00;;;;;;;;5046815;28;47310;-57
2023/06/07 00:38:11;;;;;;;;;16.50;15.75;;;;;;;;5055847;28;45205;-54
2023/06/07 00:40:37;;;;;;;;;17.75;16.25;;;;;;;;5055606;28;45206;-56
2023/06/07 00:43:02;;;;;;;;;16.50;13.25;;;;;;;;5055699;28;45135;-57
2023/06/07 00:45:27;;;;;;;;;15.75;15.75;;;;;;;;5055851;28;46552;-58
2023/06/07 00:47:52;;;;;;;;;17.25;15.50;;;;;;;;5055678;28;45210;-55
2023/06/07 00:50:18;;;;;;;;;20.00;17.75;;;;;;;;5055123;28;45321;-55
2023/06/07 00:52:43;;;;;;;;;16.75;13.75;;;;;;;;5056146;28;45273;-56
2023/06/07 00:55:08;;;;;;;;;16.75;14.50;;;;;;;;5071089;28;45239;-55
2023/06/07 00:57:35;;;;;;;;;17.75;14.75;;;;;;;;5071073;28;45298;-55
2023/06/07 01:00:00;;;;;;;;;17.20;15.40;;;;;;;;5055532;28;45236;-57
2023/06/07 01:02:26;;;;;;;;;17.00;17.00;;;;;;;;5071633;28;45360;-54
2023/06/07 01:04:51;;;;;;;;;14.00;13.75;;;;;;;;5053841;28;46266;-55
2023/06/07 01:07:24;;;;;;;;;10.50;10.25;;;;;;;;5055279;28;45397;-56
2023/06/07 01:09:49;;;;;;;;;18.60;17.00;;;;;;;;5055219;28;45274;-54
2023/06/07 01:12:15;;;;;;;;;14.75;12.75;;;;;;;;5055974;28;45283;-56
2023/06/07 01:14:40;;;;;;;;;10.50;10.50;;;;;;;;5055299;28;45972;-57
2023/06/07 01:17:05;;;;;;;;;16.00;12.00;;;;;;;;5055337;28;45390;-54
2023/06/07 01:19:32;;;;;;;;;14.75;14.75;;;;;;;;5055366;28;45280;-56
2023/06/07 01:22:02;;;;;;;;;19.40;12.80;;;;;;;;5071007;28;45215;-56
2023/06/07 01:24:29;;;;;;;;;19.40;19.40;;;;;;;;5054791;28;46246;-52
2023/06/07 01:26:57;;;;;;;;;18.40;15.60;;;;;;;;5055149;28;45897;-55
2023/06/07 01:29:24;;;;;;;;;23.20;15.40;;;;;;;;5053762;28;45761;-56
2023/06/07 01:31:50;;;;;;;;;16.40;14.60;;;;;;;;5070705;28;45396;-56
2023/06/07 01:34:15;;;;;;;;;18.25;16.25;;;;;;;;5070778;28;45380;-55
2023/06/07 01:36:40;;;;;;;;;22.25;17.50;;;;;;;;5070280;28;45506;-54
2023/06/07 01:39:05;;;;;;;;;16.75;14.00;;;;;;;;5055189;28;45356;-56
2023/06/07 01:41:31;;;;;;;;;15.75;15.75;;;;;;;;5053210;28;45318;-54
2023/06/07 01:43:57;;;;;;;;;21.25;19.25;;;;;;;;5054584;28;46388;-55
2023/06/07 01:46:22;;;;;;;;;22.20;17.00;;;;;;;;5054660;28;45277;-56
2023/06/07 01:48:47;;;;;;;;;22.00;16.50;;;;;;;;5053200;28;45392;-55
2023/06/07 01:51:13;;;;;;;;;19.75;15.75;;;;;;;;5054964;28;45530;-57
2023/06/07 01:53:38;;;;;;;;;17.25;13.75;;;;;;;;5054515;28;45345;-54
2023/06/07 01:56:06;;;;;;;;;20.50;18.25;;;;;;;;5054661;28;45385;-54
2023/06/07 01:58:38;;;;;;;;;19.00;16.20;;;;;;;;5053407;28;45446;-52
2023/06/07 02:01:14;;;;;;;;;20.20;16.80;;;;;;;;5052152;28;45265;-54
2023/06/07 02:03:41;;;;;;;;;24.40;19.80;;;;;;;;5054139;28;47736;-53
2023/06/07 02:06:07;;;;;;;;;16.00;14.40;;;;;;;;5025544;28;46044;-54
2023/06/07 02:08:34;;;;;;;;;20.60;18.00;;;;;;;;5053208;28;45320;-55
2023/06/07 02:11:00;;;;;;;;;16.20;16.20;;;;;;;;5053107;28;45370;-56
2023/06/07 02:13:25;;;;;;;;;15.50;15.25;;;;;;;;5054346;28;46520;-54
2023/06/07 02:15:50;;;;;;;;;19.50;18.00;;;;;;;;5052628;28;45324;-53
2023/06/07 02:18:19;;;;;;;;;24.25;21.00;;;;;;;;5052862;28;45334;-55
2023/06/07 02:20:44;;;;;;;;;17.00;17.00;;;;;;;;5054554;28;46047;-55
2023/06/07 02:23:10;;;;;;;;;17.75;15.75;;;;;;;;5052772;28;45374;-56
2023/06/07 02:25:35;;;;;;;;;13.75;13.75;;;;;;;;5054428;28;45317;-56
2023/06/07 02:28:01;;;;;;;;;18.50;15.75;;;;;;;;5054200;28;45253;-56
2023/06/07 02:30:27;;;;;;;;;23.60;23.00;;;;;;;;5054199;28;45601;-56
2023/06/07 02:32:53;;;;;;;;;19.50;16.50;;;;;;;;5053778;28;45771;-57
2023/06/07 02:35:19;;;;;;;;;15.80;15.00;;;;;;;;5053842;28;45425;-55
2023/06/07 02:37:45;;;;;;;;;17.00;16.00;;;;;;;;5054452;28;45352;-56
2023/06/07 02:40:10;;;;;;;;;24.40;22.60;;;;;;;;5053683;28;45389;-56
2023/06/07 02:42:36;;;;;;;;;20.50;17.00;;;;;;;;5053843;28;46630;-54
2023/06/07 02:45:02;;;;;;;;;19.25;17.25;;;;;;;;5054066;28;45378;-55
2023/06/07 02:47:28;;;;;;;;;20.25;17.75;;;;;;;;5053864;28;45361;-55
2023/06/07 02:49:53;;;;;;;;;21.00;18.25;;;;;;;;5054355;28;45566;-57
2023/06/07 02:52:18;;;;;;;;;21.25;19.00;;;;;;;;5054153;28;45331;-58
2023/06/07 02:54:44;;;;;;;;;24.25;18.50;;;;;;;;5054034;28;45406;-58
2023/06/07 02:57:09;;;;;;;;;23.00;21.25;;;;;;;;5054165;28;45326;-55
2023/06/07 02:59:34;;;;;;;;;22.00;19.00;;;;;;;;5053927;28;45642;-55
2023/06/07 03:02:00;;;;;;;;;24.75;19.50;;;;;;;;5053752;28;46345;-56
2023/06/07 03:04:28;;;;;;;;;27.00;23.75;;;;;;;;5053506;28;45355;-55
2023/06/07 03:06:53;;;;;;;;;19.40;18.60;;;;;;;;5052579;28;45436;-55
2023/06/07 03:09:19;;;;;;;;;24.50;20.25;;;;;;;;5032179;28;45871;-57
2023/06/07 03:11:45;;;;;;;;;22.00;17.40;;;;;;;;5053531;28;46219;-54
2023/06/07 03:14:10;;;;;;;;;22.75;20.00;;;;;;;;5055431;28;45866;-56
2023/06/07 03:16:35;;;;;;;;;20.00;17.25;;;;;;;;5057377;28;45300;-56
2023/06/07 03:19:00;;;;;;;;;24.75;23.25;;;;;;;;5057430;28;45612;-57
2023/06/07 03:21:26;;;;;;;;;25.75;23.25;;;;;;;;5056631;28;45975;-55
2023/06/07 03:23:53;;;;;;;;;24.75;21.25;;;;;;;;5072812;28;45746;-55
2023/06/07 03:26:18;;;;;;;;;22.80;18.80;;;;;;;;5057297;28;45374;-56
2023/06/07 03:28:43;;;;;;;;;26.75;21.25;;;;;;;;5057415;28;45300;-55
2023/06/07 03:31:08;;;;;;;;;21.50;20.25;;;;;;;;5056497;28;46559;-54
2023/06/07 03:33:34;;;;;;;;;24.00;21.75;;;;;;;;5056836;28;45308;-56
2023/06/07 03:35:59;;;;;;;;;18.25;16.50;;;;;;;;5055378;28;45352;-54
2023/06/07 03:38:24;;;;;;;;;22.75;19.50;;;;;;;;5057116;28;45482;-54
2023/06/07 03:40:50;;;;;;;;;22.50;22.50;;;;;;;;5056332;28;45415;-58
2023/06/07 03:43:15;;;;;;;;;23.25;20.75;;;;;;;;5056569;28;45373;-57
2023/06/07 03:45:40;;;;;;;;;22.50;20.25;;;;;;;;5056851;28;45246;-60
2023/06/07 03:48:06;;;;;;;;;23.50;23.50;;;;;;;;5057090;28;45317;-57
2023/06/07 03:50:31;;;;;;;;;19.00;15.00;;;;;;;;5056320;28;46428;-60
2023/06/07 03:52:56;;;;;;;;;24.50;20.00;;;;;;;;5056566;28;45287;-57
2023/06/07 03:55:21;;;;;;;;;22.25;19.50;;;;;;;;5056594;28;45317;-56
2023/06/07 03:57:47;;;;;;;;;29.25;25.75;;;;;;;;5055211;28;45431;-57
2023/06/07 04:00:14;;;;;;;;;21.00;18.75;;;;;;;;5072265;28;46172;-56
2023/06/07 04:02:41;;;;;;;;;28.20;26.20;;;;;;;;5056197;28;45324;-54
2023/06/07 04:05:06;;;;;;;;;30.40;26.00;;;;;;;;5056350;28;45353;-58
2023/06/07 04:07:32;;;;;;;;;23.75;22.75;;;;;;;;5056307;28;45302;-57
2023/06/07 04:09:57;;;;;;;;;22.50;21.75;;;;;;;;5039662;28;47092;-58
2023/06/07 04:12:22;;;;;;;;;21.75;20.00;;;;;;;;5047852;28;45178;-59
2023/06/07 04:14:48;;;;;;;;;20.50;18.00;;;;;;;;5055937;28;45320;-58
2023/06/07 04:17:13;;;;;;;;;29.25;21.00;;;;;;;;5056676;28;45147;-59
2023/06/07 04:19:38;;;;;;;;;23.50;21.25;;;;;;;;5056028;28;46693;-59
2023/06/07 04:22:04;;;;;;;;;27.75;25.00;;;;;;;;5055793;28;45160;-58
2023/06/07 04:24:32;;;;;;;;;22.60;20.80;;;;;;;;5055082;28;45269;-55
2023/06/07 04:26:58;;;;;;;;;25.20;24.20;;;;;;;;5056418;28;45423;-58
2023/06/07 04:29:25;;;;;;;;;27.50;24.25;;;;;;;;5056002;28;45952;-57
2023/06/07 04:31:52;;;;;;;;;22.60;20.80;;;;;;;;5055346;28;45450;-59
2023/06/07 04:34:21;;;;;;;;;26.40;25.00;;;;;;;;5056004;28;45359;-59
2023/06/07 04:36:49;;;;;;;;;29.60;25.20;;;;;;;;5055649;28;45555;-57
2023/06/07 04:39:14;;;;;;;;;30.40;29.00;;;;;;;;5055613;28;46413;-58
2023/06/07 04:41:40;;;;;;;;;29.25;21.50;;;;;;;;5055162;28;45430;-58
2023/06/07 04:44:07;;;;;;;;;26.00;22.00;;;;;;;;5055647;28;45317;-58
2023/06/07 04:46:32;;;;;;;;;26.00;22.40;;;;;;;;5056069;28;45403;-58
2023/06/07 04:48:58;;;;;;;;;29.75;23.00;;;;;;;;5055450;28;46111;-59
2023/06/07 04:51:26;;;;;;;;;27.80;26.20;;;;;;;;5055308;28;45487;-59
2023/06/07 04:53:53;;;;;;;;;27.40;23.60;;;;;;;;5055287;28;45786;-58
2023/06/07 04:56:18;;;;;;;;;28.60;25.00;;;;;;;;5054614;28;45380;-57
2023/06/07 04:58:43;;;;;;;;;29.00;27.00;;;;;;;;5055372;28;46572;-58
2023/06/07 05:01:10;;;;;;;;;30.75;26.50;;;;;;;;5037092;28;45364;-57
2023/06/07 05:03:38;;;;;;;;;30.00;26.80;;;;;;;;5055605;28;45792;-58
2023/06/07 05:06:04;;;;;;;;;30.00;26.00;;;;;;;;5055360;28;45759;-60
2023/06/07 05:08:29;;;;;;;;;33.25;29.00;;;;;;;;5053844;28;47990;-58
2023/06/07 05:10:55;;;;;;;;;28.00;24.25;;;;;;;;5055092;28;45297;-57
2023/06/07 05:13:20;;;;;;;;;27.25;26.50;;;;;;;;5024602;28;45464;-56
2023/06/07 05:15:45;;;;;;;;;26.50;25.00;;;;;;;;5055312;28;45335;-57
2023/06/07 05:18:12;;;;;;;;;25.00;23.25;;;;;;;;5054755;28;46380;-57
2023/06/07 05:20:37;;;;;;;;;22.60;20.40;;;;;;;;5053751;28;45758;-60
2023/06/07 05:23:03;;;;;;;;;27.75;22.50;;;;;;;;5070990;28;45969;-59
2023/06/07 05:25:28;;;;;;;;;31.50;29.25;;;;;;;;5055212;28;45550;-58
2023/06/07 05:27:54;;;;;;;;;27.75;24.50;;;;;;;;5055160;28;45392;-59
2023/06/07 05:30:19;;;;;;;;;33.50;26.50;;;;;;;;5054698;28;45357;-59
2023/06/07 05:32:44;;;;;;;;;33.00;27.00;;;;;;;;5054959;28;45415;-60
2023/06/07 05:35:10;;;;;;;;;31.25;27.50;;;;;;;;5054786;28;45764;-58
2023/06/07 05:37:35;;;;;;;;;34.25;26.75;;;;;;;;5054519;28;46431;-60
2023/06/07 05:40:00;;;;;;;;;29.00;27.75;;;;;;;;5054747;28;45346;-55
2023/06/07 05:42:25;;;;;;;;;30.50;28.00;;;;;;;;5054556;28;45416;-58
2023/06/07 05:44:51;;;;;;;;;34.75;30.25;;;;;;;;5055212;28;45561;-56
2023/06/07 05:47:16;;;;;;;;;34.75;30.75;;;;;;;;5054804;28;45532;-59
2023/06/07 05:49:45;;;;;;;;;33.00;30.25;;;;;;;;5054872;28;45349;-58
2023/06/07 05:52:10;;;;;;;;;36.20;27.40;;;;;;;;5055084;28;45348;-60
2023/06/07 05:54:37;;;;;;;;;31.75;27.25;;;;;;;;5053804;28;45181;-58
2023/06/07 05:57:02;;;;;;;;;30.80;28.80;;;;;;;;5054805;28;46296;-58
2023/06/07 05:59:28;;;;;;;;;32.00;29.25;;;;;;;;5054677;28;45413;-59
2023/06/07 06:01:53;;;;;;;;;30.75;29.50;;;;;;;;5053534;28;45388;-57
2023/06/07 06:04:19;;;;;;;;;34.50;29.50;;;;;;;;5055089;28;45351;-56
2023/06/07 06:06:44;;;;;;;;;33.75;29.00;;;;;;;;5052892;28;48519;-55
2023/06/07 06:09:09;;;;;;;;;31.25;27.75;;;;;;;;5054615;28;45427;-58
2023/06/07 06:11:35;;;;;;;;;33.50;31.00;;;;;;;;5053312;28;45461;-57
2023/06/07 06:14:00;;;;;;;;;40.25;32.75;;;;;;;;5055001;28;45421;-58
2023/06/07 06:16:25;;;;;;;;;35.25;32.00;;;;;;;;5053978;28;45966;-58
2023/06/07 06:18:51;;;;;;;;;32.25;28.25;;;;;;;;5054133;28;45402;-59
2023/06/07 06:21:16;;;;;;;;;33.00;30.75;;;;;;;;5054609;28;45753;-57
2023/06/07 06:23:41;;;;;;;;;36.25;30.00;;;;;;;;5054799;28;45391;-58
2023/06/07 06:26:07;;;;;;;;;37.25;29.25;;;;;;;;5054247;28;46141;-60
2023/06/07 06:28:32;;;;;;;;;36.75;32.75;;;;;;;;5053353;28;45573;-57
2023/06/07 06:30:57;;;;;;;;;33.25;29.50;;;;;;;;5054280;28;45336;-58
2023/06/07 06:33:22;;;;;;;;;25.00;24.25;;;;;;;;5054659;28;45289;-56
2023/06/07 06:35:48;;;;;;;;;30.00;28.25;;;;;;;;5053990;28;46188;-56
2023/06/07 06:38:13;;;;;;;;;32.25;29.50;;;;;;;;5052887;28;45433;-57
2023/06/07 06:40:39;;;;;;;;;38.50;33.75;;;;;;;;5054472;28;45288;-58
2023/06/07 06:43:04;;;;;;;;;30.50;26.75;;;;;;;;5069769;28;45362;-59
2023/06/07 06:45:29;;;;;;;;;31.25;29.00;;;;;;;;5052748;28;47284;-58
2023/06/07 06:47:55;;;;;;;;;34.00;31.00;;;;;;;;5054413;28;45341;-58
2023/06/07 06:50:20;;;;;;;;;37.25;29.75;;;;;;;;5058245;28;45324;-56
2023/06/07 06:52:45;;;;;;;;;28.75;28.00;;;;;;;;5057753;28;45246;-57
2023/06/07 06:55:10;;;;;;;;;35.50;31.50;;;;;;;;5057578;28;46658;-57
2023/06/07 06:57:36;;;;;;;;;37.00;31.75;;;;;;;;5056338;28;45581;-57
2023/06/07 07:00:10;;;;;;;;;36.50;32.00;;;;;;;;5057974;28;45321;-58
2023/06/07 07:02:35;;;;;;;;;36.40;32.80;;;;;;;;5057628;28;45229;-57
2023/06/07 07:05:03;;;;;;;;;28.50;27.50;;;;;;;;5057518;28;46758;-58
2023/06/07 07:07:29;;;;;;;;;34.00;29.60;;;;;;;;5057097;28;45419;-60
2023/06/07 07:09:54;;;;;;;;;27.75;27.25;;;;;;;;5056185;28;45284;-57
2023/06/07 07:12:21;;;;;;;;;31.50;29.50;;;;;;;;5057675;28;45388;-57
2023/06/07 07:14:46;;;;;;;;;27.80;27.00;;;;;;;;5057091;28;46137;-58
2023/06/07 07:17:11;;;;;;;;;30.00;25.75;;;;;;;;5073045;28;45860;-57
2023/06/07 07:19:37;;;;;;;;;37.00;32.25;;;;;;;;5057394;28;45379;-56
2023/06/07 07:22:02;;;;;;;;;32.75;31.00;;;;;;;;5057191;28;45330;-56
2023/06/07 07:24:27;;;;;;;;;35.50;31.00;;;;;;;;5072938;28;46113;-58
2023/06/07 07:26:52;;;;;;;;;35.25;32.50;;;;;;;;5057208;28;45256;-62
2023/06/07 07:29:18;;;;;;;;;30.50;30.00;;;;;;;;5057543;28;45389;-57
2023/06/07 07:31:43;;;;;;;;;31.50;28.25;;;;;;;;5057018;28;45315;-59
2023/06/07 07:34:10;;;;;;;;;31.50;27.75;;;;;;;;5041429;27;46323;-59
2023/06/07 07:36:36;;;;;;;;;30.40;25.20;;;;;;;;5056965;28;45283;-58
2023/06/07 07:39:05;;;;;;;;;27.00;22.75;;;;;;;;5055942;28;45388;-58
2023/06/07 07:41:33;;;;;;;;;30.60;25.60;;;;;;;;5056929;28;45569;-57
2023/06/07 07:43:58;;;;;;;;;32.60;27.00;;;;;;;;5056402;28;45677;-56
2023/06/07 07:46:24;;;;;;;;;30.75;28.25;;;;;;;;5056367;28;45169;-57
2023/06/07 07:48:49;;;;;;;;;26.00;25.25;;;;;;;;5056649;28;45308;-58
2023/06/07 07:51:15;;;;;;;;;34.75;29.50;;;;;;;;5056824;28;45228;-59
2023/06/07 07:53:42;;;;;;;;;28.40;23.80;;;;;;;;5056467;28;47002;-56
2023/06/07 07:56:07;;;;;;;;;29.00;28.00;;;;;;;;5056229;28;45498;-56
2023/06/07 07:58:32;;;;;;;;;26.75;25.75;;;;;;;;5055845;28;45717;-58
2023/06/07 08:00:57;;;;;;;;;28.25;26.00;;;;;;;;5054968;28;45229;-57
2023/06/07 08:03:23;;;;;;;;;30.25;26.50;;;;;;;;5054495;28;47840;-54
2023/06/07 08:05:48;;;;;;;;;25.50;24.50;;;;;;;;5055027;28;46169;-58
2023/06/07 08:08:14;;;;;;;;;29.25;24.75;;;;;;;;5056183;28;45257;-60
2023/06/07 08:10:40;;;;;;;;;30.40;24.00;;;;;;;;5056844;28;45467;-58
2023/06/07 08:13:05;;;;;;;;;34.75;29.75;;;;;;;;5056128;28;46962;-59
2023/06/07 08:15:31;;;;;;;;;27.50;25.25;;;;;;;;5056309;28;45423;-58
2023/06/07 08:17:57;;;;;;;;;27.00;25.00;;;;;;;;5055098;28;45365;-59
2023/06/07 08:20:22;;;;;;;;;29.00;25.75;;;;;;;;5054774;28;45388;-57
2023/06/07 08:22:50;;;;;;;;;30.00;27.75;;;;;;;;5055862;28;46401;-59
2023/06/07 08:25:16;;;;;;;;;30.80;25.60;;;;;;;;5054641;28;45580;-57
2023/06/07 08:27:41;;;;;;;;;29.20;26.20;;;;;;;;5055978;28;45324;-60
2023/06/07 08:30:09;;;;;;;;;28.75;26.00;;;;;;;;5055897;28;45328;-57
2023/06/07 08:32:34;;;;;;;;;24.20;20.00;;;;;;;;5055843;28;45667;-58
2023/06/07 08:34:59;;;;;;;;;24.00;23.75;;;;;;;;5056128;28;45413;-58
2023/06/07 08:37:25;;;;;;;;;25.25;24.25;;;;;;;;5054070;28;45329;-57
2023/06/07 08:39:50;;;;;;;;;25.50;23.25;;;;;;;;5056102;28;45455;-57
2023/06/07 08:42:15;;;;;;;;;28.50;26.50;;;;;;;;5055259;28;46370;-58
2023/06/07 08:44:41;;;;;;;;;25.00;22.50;;;;;;;;5055823;28;45424;-57
2023/06/07 08:47:06;;;;;;;;;24.50;22.75;;;;;;;;5028287;28;45822;-59
2023/06/07 08:49:33;;;;;;;;;22.00;20.50;;;;;;;;5054599;28;45497;-57
2023/06/07 08:51:59;;;;;;;;;23.40;19.60;;;;;;;;5054751;28;45827;-57
2023/06/07 08:54:24;;;;;;;;;20.00;20.00;;;;;;;;5053708;28;45388;-61
2023/06/07 08:56:50;;;;;;;;;24.75;21.25;;;;;;;;5018674;28;49981;-61
2023/06/07 08:59:16;;;;;;;;;21.50;20.25;;;;;;;;5038052;28;46273;-61
2023/06/07 09:01:42;;;;;;;;;18.80;18.60;;;;;;;;5032343;28;45641;-58
2023/06/07 09:04:08;;;;;;;;;18.50;18.25;;;;;;;;5039678;28;45495;-58
2023/06/07 09:06:34;;;;;;;;;27.50;22.00;;;;;;;;5032123;28;45538;-52
2023/06/07 09:08:59;;;;;;;;;23.75;21.25;;;;;;;;5052429;28;45805;-50
2023/06/07 09:11:24;;;;;;;;;27.00;25.50;;;;;;;;5051869;28;46058;-62
2023/06/07 09:13:50;;;;;;;;;26.00;20.25;;;;;;;;5037460;28;45367;-56
2023/06/07 09:16:15;;;;;;;;;22.00;21.25;;;;;;;;5042369;28;45585;-57
2023/06/07 09:18:42;;;;;;;;;26.00;21.25;;;;;;;;5047079;28;45900;-59
2023/06/07 09:21:21;;;;;;;;;32.00;30.40;;;;;;;;5051824;28;46623;-61
2023/06/07 09:23:46;;;;;;;;;23.20;22.20;;;;;;;;5045182;28;45383;-58
2023/06/07 09:26:11;;;;;;;;;22.25;22.25;;;;;;;;5046583;28;45826;-58
2023/06/07 09:28:37;;;;;;;;;22.25;22.25;;;;;;;;5058558;27;45364;-59
2023/06/07 09:31:04;;;;;;;;;23.50;19.00;;;;;;;;5040250;28;46333;-60
2023/06/07 09:33:35;;;;;;;;;22.60;20.80;;;;;;;;5011301;28;45635;-59
2023/06/07 09:36:08;;;;;;;;;22.40;19.20;;;;;;;;5042087;28;45436;-60
2023/06/07 09:38:33;;;;;;;;;23.40;23.00;;;;;;;;5035667;28;45729;-58
2023/06/07 09:40:59;;;;;;;;;26.75;23.75;;;;;;;;5031466;28;46482;-58
2023/06/07 09:43:25;;;;;;;;;25.50;20.25;;;;;;;;5035983;28;45337;-54
2023/06/07 09:45:54;;;;;;;;;21.40;20.80;;;;;;;;5039498;28;45462;-56
2023/06/07 09:48:19;;;;;;;;;20.80;19.20;;;;;;;;5053403;28;45487;-58
2023/06/07 09:50:57;;;;;;;;;19.75;16.75;;;;;;;;5053301;28;46693;-58
2023/06/07 09:53:22;;;;;;;;;18.80;18.60;;;;;;;;5052564;28;45795;-57
2023/06/07 09:55:47;;;;;;;;;17.75;17.00;;;;;;;;5043874;28;45305;-60
2023/06/07 09:58:19;;;;;;;;;24.00;22.25;;;;;;;;5052075;28;45421;-58
2023/06/07 10:00:45;;;;;;;;;19.20;18.80;;;;;;;;5052913;28;45731;-61
2023/06/07 10:03:12;;;;;;;;;21.25;19.50;;;;;;;;5060594;28;45874;-58
2023/06/07 10:05:37;;;;;;;;;21.20;21.20;;;;;;;;5036717;28;45496;-55
2023/06/07 10:08:03;;;;;;;;;20.75;19.00;;;;;;;;5036422;28;45476;-54
2023/06/07 10:10:28;;;;;;;;;20.75;20.25;;;;;;;;5064659;28;46796;-56
2023/06/07 10:12:53;;;;;;;;;20.25;18.25;;;;;;;;5050605;28;45627;-58
2023/06/07 10:15:23;;;;;;;;;18.50;14.75;;;;;;;;5050123;28;45927;-57
2023/06/07 10:17:55;;;;;;;;;21.00;21.00;;;;;;;;5049804;28;45435;-57
2023/06/07 10:20:24;;;;;;;;;21.20;20.00;;;;;;;;5066540;28;46635;-54
2023/06/07 10:22:50;;;;;;;;;22.20;19.80;;;;;;;;5048566;28;45887;-58
2023/06/07 10:25:16;;;;;;;;;20.00;18.25;;;;;;;;5045126;28;45556;-58
2023/06/07 10:27:41;;;;;;;;;19.00;19.00;;;;;;;;5061621;28;45428;-58
2023/06/07 10:30:09;;;;;;;;;19.50;18.50;;;;;;;;5032430;28;45859;-57
2023/06/07 10:32:34;;;;;;;;;25.80;24.20;;;;;;;;5047259;28;45681;-54
2023/06/07 10:35:00;;;;;;;;;19.25;19.25;;;;;;;;5027393;28;45333;-50
2023/06/07 10:37:30;;;;;;;;;19.20;17.60;;;;;;;;5048051;28;45490;-57
2023/06/07 10:39:55;;;;;;;;;19.20;19.20;;;;;;;;5047850;28;46693;-56
2023/06/07 10:42:21;;;;;;;;;19.25;18.25;;;;;;;;5048336;28;45770;-56
2023/06/07 10:44:46;;;;;;;;;17.50;17.50;;;;;;;;5065969;28;45815;-57
2023/06/07 10:47:20;;;;;;;;;14.25;13.75;;;;;;;;5048277;28;45503;-57
2023/06/07 10:49:46;;;;;;;;;20.60;20.40;;;;;;;;5050343;28;46343;-58
2023/06/07 10:52:14;;;;;;;;;19.75;19.75;;;;;;;;5050824;28;45656;-55
2023/06/07 10:54:41;;;;;;;;;18.20;18.00;;;;;;;;5050330;28;45441;-54
2023/06/07 10:57:06;;;;;;;;;21.00;19.40;;;;;;;;5042367;28;45502;-56
2023/06/07 10:59:31;;;;;;;;;19.75;19.50;;;;;;;;5046403;28;46174;-56
2023/06/07 11:02:16;;;;;;;;;21.75;20.00;;;;;;;;5052205;28;45329;-52
2023/06/07 11:04:51;;;;;;;;;15.00;15.00;;;;;;;;5052103;28;45317;-60
2023/06/07 11:07:19;;;;;;;;;18.60;17.00;;;;;;;;5052544;28;45353;-58
2023/06/07 11:09:45;;;;;;;;;19.80;19.80;;;;;;;;5050220;28;46445;-56
2023/06/07 11:12:44;;;;;;;;;21.60;20.80;;;;;;;;5051963;28;45400;-57
2023/06/07 11:15:30;;;;;;;;;21.60;20.60;;;;;;;;5051488;28;45457;-58
2023/06/07 11:17:56;;;;;;;;;19.60;18.80;;;;;;;;5052096;28;45296;-60
2023/06/07 11:20:40;;;;;;;;;17.00;16.60;;;;;;;;5041933;28;45725;-57
2023/06/07 11:23:24;;;;;;;;;17.60;17.40;;;;;;;;5027491;28;45432;-60
2023/06/07 11:25:53;;;;;;;;;18.00;16.80;;;;;;;;5046550;28;45354;-60
2023/06/07 11:28:26;;;;;;;;;16.00;16.00;;;;;;;;5033583;28;45377;-58
2023/06/07 11:30:52;;;;;;;;;20.20;19.40;;;;;;;;5033049;28;47263;-59
2023/06/07 11:33:18;;;;;;;;;13.00;13.00;;;;;;;;5032241;28;45335;-60
2023/06/07 11:35:43;;;;;;;;;14.40;14.20;;;;;;;;5051731;28;45439;-56
2023/06/07 11:38:09;;;;;;;;;17.00;16.25;;;;;;;;5048068;28;45557;-59
2023/06/07 11:40:35;;;;;;;;;18.25;18.25;;;;;;;;5072203;28;46964;-58
2023/06/07 11:43:01;;;;;;;;;16.50;15.50;;;;;;;;5056293;28;45285;-60
2023/06/07 11:45:26;;;;;;;;;19.20;19.20;;;;;;;;5072343;28;45421;-60
2023/06/07 11:47:55;;;;;;;;;30.50;28.00;;;;;;;;5057266;28;45359;-58
2023/06/07 11:50:21;;;;;;;;;26.40;25.40;;;;;;;;5056457;28;45694;-61
2023/06/07 11:52:46;;;;;;;;;25.75;25.25;;;;;;;;5072133;28;45279;-58
2023/06/07 11:55:12;;;;;;;;;23.75;22.75;;;;;;;;5055634;28;45401;-60
2023/06/07 11:57:38;;;;;;;;;18.00;15.25;;;;;;;;5042748;28;47379;-60
2023/06/07 12:00:10;;;;;;;;;18.00;18.00;;;;;;;;5046505;28;50502;-61
2023/06/07 12:02:39;;;;;;;;;17.20;16.20;;;;;;;;5054111;28;45395;-61
2023/06/07 12:05:05;;;;;;;;;15.00;15.00;;;;;;;;5054403;28;45442;-62
2023/06/07 12:07:33;;;;;;;;;15.00;14.50;;;;;;;;5070052;28;45443;-62
2023/06/07 12:10:00;;;;;;;;;17.20;14.80;;;;;;;;5053997;28;45689;-61
2023/06/07 12:12:25;;;;;;;;;17.60;14.40;;;;;;;;5048899;28;45369;-61
2023/06/07 12:14:58;;;;;;;;;15.25;15.25;;;;;;;;5054208;28;45697;-60
2023/06/07 12:17:23;;;;;;;;;17.40;13.60;;;;;;;;5054338;28;45333;-61
2023/06/07 12:19:49;;;;;;;;;16.25;14.00;;;;;;;;5069481;28;45885;-61
2023/06/07 12:22:14;;;;;;;;;19.00;17.75;;;;;;;;5019155;28;45842;-62
2023/06/07 12:24:40;;;;;;;;;13.75;13.25;;;;;;;;5038681;27;45872;-62
2023/06/07 12:27:05;;;;;;;;;17.50;15.50;;;;;;;;5022123;28;45413;-61
2023/06/07 12:29:31;;;;;;;;;16.25;16.00;;;;;;;;5049458;28;45756;-62
2023/06/07 12:31:57;;;;;;;;;19.25;18.25;;;;;;;;5052493;28;45632;-62
2023/06/07 12:34:26;;;;;;;;;15.60;13.60;;;;;;;;5044258;28;45458;-62
2023/06/07 12:36:51;;;;;;;;;12.40;12.40;;;;;;;;5033651;28;46034;-59
2023/06/07 12:39:17;;;;;;;;;18.00;17.00;;;;;;;;5065611;28;45639;-57
2023/06/07 12:41:42;;;;;;;;;16.25;15.50;;;;;;;;5051422;28;45461;-59
2023/06/07 12:44:10;;;;;;;;;13.75;13.25;;;;;;;;5051850;28;45385;-60
2023/06/07 12:46:36;;;;;;;;;15.20;15.20;;;;;;;;5053306;28;45435;-60
2023/06/07 12:49:01;;;;;;;;;19.00;18.50;;;;;;;;5053452;28;46615;-60
2023/06/07 12:51:26;;;;;;;;;15.25;14.75;;;;;;;;5039176;28;45827;-58
2023/06/07 12:53:52;;;;;;;;;13.75;13.75;;;;;;;;5050261;28;45376;-54
2023/06/07 12:56:17;;;;;;;;;14.00;13.00;;;;;;;;5034126;28;45377;-55
2023/06/07 12:58:43;;;;;;;;;13.50;13.50;;;;;;;;5033796;28;46023;-54
2023/06/07 13:01:08;;;;;;;;;15.25;15.25;;;;;;;;5033203;28;45622;-59
2023/06/07 13:03:33;;;;;;;;;17.50;16.50;;;;;;;;5036647;28;46172;-59
2023/06/07 13:05:59;;;;;;;;;15.00;15.00;;;;;;;;5034620;28;45483;-55
2023/06/07 13:08:24;;;;;;;;;14.50;13.50;;;;;;;;5032961;28;46699;-55
2023/06/07 13:10:49;;;;;;;;;15.75;13.50;;;;;;;;5041840;28;45866;-59
2023/06/07 13:13:15;;;;;;;;;14.25;14.25;;;;;;;;5053794;27;45556;-60
2023/06/07 13:15:40;;;;;;;;;15.00;13.00;;;;;;;;5039159;28;45728;-58
2023/06/07 13:18:05;;;;;;;;;16.00;14.25;;;;;;;;5033540;28;45650;-56
2023/06/07 13:20:31;;;;;;;;;14.25;14.25;;;;;;;;5047746;28;45336;-55
2023/06/07 13:22:56;;;;;;;;;20.25;16.75;;;;;;;;5044565;28;45485;-53
2023/06/07 13:25:21;;;;;;;;;13.50;13.50;;;;;;;;5054048;28;45579;-59
2023/06/07 13:27:47;;;;;;;;;16.25;14.00;;;;;;;;5049910;28;46074;-58
2023/06/07 13:30:12;;;;;;;;;14.50;14.00;;;;;;;;5033481;28;45601;-59
2023/06/07 13:32:37;;;;;;;;;13.75;12.50;;;;;;;;5031980;28;45460;-62
2023/06/07 13:35:03;;;;;;;;;15.25;15.25;;;;;;;;5037323;28;45486;-57
2023/06/07 13:37:28;;;;;;;;;14.50;14.50;;;;;;;;5050464;28;46092;-59
2023/06/07 13:39:53;;;;;;;;;14.00;13.50;;;;;;;;5051445;28;45749;-58
2023/06/07 13:42:21;;;;;;;;;15.25;14.00;;;;;;;;5051792;28;45529;-55
2023/06/07 13:44:49;;;;;;;;;16.40;16.40;;;;;;;;5052024;28;45423;-52
2023/06/07 13:47:15;;;;;;;;;17.40;16.40;;;;;;;;5051930;28;46547;-57
2023/06/07 13:49:40;;;;;;;;;14.00;14.00;;;;;;;;5051630;28;45450;-55
2023/06/07 13:52:06;;;;;;;;;17.00;15.00;;;;;;;;5067694;28;45415;-50
2023/06/07 13:54:31;;;;;;;;;17.00;15.25;;;;;;;;5053174;28;45767;-58
2023/06/07 13:56:57;;;;;;;;;16.25;16.25;;;;;;;;5053984;28;46477;-60
2023/06/07 13:59:23;;;;;;;;;16.75;15.50;;;;;;;;5047879;28;45693;-61
2023/06/07 14:01:48;;;;;;;;;14.00;14.00;;;;;;;;5034922;28;45577;-58
2023/06/07 14:04:13;;;;;;;;;15.00;15.00;;;;;;;;5033796;28;45488;-60
2023/06/07 14:06:39;;;;;;;;;15.25;15.25;;;;;;;;5033067;28;46549;-55
2023/06/07 14:09:04;;;;;;;;;14.00;14.00;;;;;;;;5033683;28;45339;-59
2023/06/07 14:11:30;;;;;;;;;15.25;15.25;;;;;;;;5034148;28;45350;-60